Time;durP1;ratioP1;P1;durP2;ratioP2;P2;SDS_P1;SDS_P2;PMS_P1;PMS_P2;Temp;Humidity;BMP_temperature;BMP_pressure;BME280_temperature;BME280_humidity;BME280_pressure;Samples;Min_cycle;Max_cycle;Signal;HPM_P1;HPM_P2
2022/07/15 00:01:10;;;;;;;2.42;1.57;;;;;;;18.72;56.51;98930.41;1651137;86;21618;-85
2022/07/15 00:03:37;;;;;;;3.98;1.72;;;;;;;18.74;57.70;98938.19;1679829;84;21012;-85
2022/07/15 00:06:04;;;;;;;4.20;1.72;;;;;;;18.73;57.27;98933.39;1662082;84;21045;-86
2022/07/15 00:08:30;;;;;;;6.60;2.10;;;;;;;18.73;58.94;98936.03;1673428;86;21056;-85
2022/07/15 00:10:57;;;;;;;4.87;1.95;;;;;;;18.71;59.05;98935.28;1673359;86;21024;-85
2022/07/15 00:13:24;;;;;;;8.28;2.20;;;;;;;18.68;58.25;98945.98;1677449;86;21024;-86
2022/07/15 00:15:52;;;;;;;5.62;1.95;;;;;;;18.62;59.91;98943.28;1684425;84;21118;-85
2022/07/15 00:18:18;;;;;;;5.20;2.05;;;;;;;18.57;58.22;98936.59;1674618;86;21004;-85
2022/07/15 00:20:45;;;;;;;5.40;2.05;;;;;;;18.52;59.10;98932.06;1675116;86;21075;-86
2022/07/15 00:23:12;;;;;;;8.25;2.60;;;;;;;18.50;58.97;98934.78;1709516;84;21078;-86
2022/07/15 00:25:38;;;;;;;6.92;2.20;;;;;;;18.46;58.85;98944.67;1719858;83;21053;-85
2022/07/15 00:28:07;;;;;;;7.53;2.30;;;;;;;18.39;58.81;98939.86;1733199;83;21025;-85
2022/07/15 00:30:37;;;;;;;3.80;1.82;;;;;;;18.34;58.10;98936.16;1741529;82;21036;-85
2022/07/15 00:33:04;;;;;;;5.87;1.98;;;;;;;18.30;59.34;98941.23;1758849;82;21032;-86
2022/07/15 00:35:34;;;;;;;9.43;2.42;;;;;;;18.28;60.67;98936.09;1751889;82;21010;-85
2022/07/15 00:38:02;;;;;;;11.57;2.37;;;;;;;18.27;60.82;98937.48;1721350;83;21092;-86
2022/07/15 00:40:30;;;;;;;6.58;2.22;;;;;;;18.24;59.80;98941.59;1724568;82;21042;-85
2022/07/15 00:42:57;;;;;;;8.75;3.08;;;;;;;18.21;59.55;98936.53;1719993;82;21084;-85
2022/07/15 00:45:25;;;;;;;5.05;2.37;;;;;;;18.16;62.63;98939.89;1729175;83;21009;-85
2022/07/15 00:47:57;;;;;;;8.48;2.87;;;;;;;18.15;61.05;98944.80;1729473;83;20968;-85
2022/07/15 00:50:28;;;;;;;9.75;2.90;;;;;;;18.14;60.47;98939.14;1729771;80;21252;-87
2022/07/15 00:53:13;;;;;;;5.85;2.98;;;;;;;18.07;61.14;98930.77;1731961;80;20940;-86
2022/07/15 00:55:45;;;;;;;8.80;3.12;;;;;;;18.05;62.83;98930.85;1710061;80;21067;-85
2022/07/15 00:58:17;;;;;;;13.60;3.58;;;;;;;18.02;61.00;98933.64;1739967;80;21077;-85
2022/07/15 01:00:45;;;;;;;11.30;3.15;;;;;;;17.98;61.72;98932.13;1720186;82;21006;-85
2022/07/15 01:03:14;;;;;;;9.80;3.67;;;;;;;17.97;62.09;98936.19;1734657;81;21059;-84
2022/07/15 01:05:42;;;;;;;14.05;3.20;;;;;;;17.95;63.50;98931.02;1751666;82;21102;-85
2022/07/15 01:08:10;;;;;;;12.10;3.67;;;;;;;17.93;63.66;98922.36;1751509;82;21101;-85
2022/07/15 01:10:39;;;;;;;10.70;3.45;;;;;;;17.93;62.90;98931.57;1750884;82;21002;-85
2022/07/15 01:13:06;;;;;;;11.18;3.37;;;;;;;17.92;63.14;98929.86;1751143;82;21050;-86
2022/07/15 01:15:33;;;;;;;8.38;2.83;;;;;;;17.89;63.77;98923.48;1751088;82;21065;-85
2022/07/15 01:18:02;;;;;;;7.80;3.15;;;;;;;17.89;62.95;98919.53;1724350;82;21021;-86
2022/07/15 01:20:31;;;;;;;6.33;2.65;;;;;;;17.88;62.66;98914.72;1748352;82;21069;-85
2022/07/15 01:23:00;;;;;;;5.53;2.27;;;;;;;17.85;61.73;98912.77;1746048;82;21005;-86
2022/07/15 01:25:29;;;;;;;7.17;2.02;;;;;;;17.81;61.73;98913.37;1750044;82;21039;-85
2022/07/15 01:27:57;;;;;;;3.45;1.77;;;;;;;17.80;61.82;98913.45;1752016;82;20935;-85
2022/07/15 01:30:26;;;;;;;5.55;2.67;;;;;;;17.79;62.59;98914.41;1751691;81;21060;-86
2022/07/15 01:32:53;;;;;;;5.37;2.17;;;;;;;17.77;62.08;98914.48;1751822;82;20991;-85
2022/07/15 01:35:20;;;;;;;4.40;2.00;;;;;;;17.76;62.09;98905.36;1751489;82;21036;-87
2022/07/15 01:37:48;;;;;;;5.67;2.00;;;;;;;17.73;62.46;98910.34;1751908;82;21081;-87
2022/07/15 01:40:16;;;;;;;2.90;1.98;;;;;;;17.69;61.58;98900.94;1751681;82;21009;-86
2022/07/15 01:42:43;;;;;;;3.87;1.90;;;;;;;17.65;62.94;98905.98;1751209;82;21072;-85
2022/07/15 01:45:13;;;;;;;4.87;1.95;;;;;;;17.59;61.83;98903.23;1724166;82;21032;-86
2022/07/15 01:47:49;;;;;;;7.78;2.02;;;;;;;17.56;62.77;98902.08;1751222;82;21093;-86
2022/07/15 01:50:21;;;;;;;4.65;2.27;;;;;;;17.48;61.93;98899.88;1747536;82;21064;-86
2022/07/15 01:52:52;;;;;;;3.37;1.73;;;;;;;17.45;63.26;98899.23;1751070;82;21085;-84
2022/07/15 01:55:20;;;;;;;5.35;1.80;;;;;;;17.41;62.28;98895.09;1752445;81;21496;-86
2022/07/15 01:57:47;;;;;;;5.42;1.75;;;;;;;17.37;62.51;98885.66;1754422;81;21090;-86
2022/07/15 02:00:17;;;;;;;5.22;1.95;;;;;;;17.36;62.92;98891.39;1765747;81;21006;-86
2022/07/15 02:02:43;;;;;;;3.85;2.00;;;;;;;17.38;62.92;98890.83;1750931;82;21093;-86
2022/07/15 02:05:11;;;;;;;4.45;1.75;;;;;;;17.38;63.37;98890.83;1750868;82;21045;-86
2022/07/15 02:07:39;;;;;;;5.40;1.92;;;;;;;17.36;62.90;98891.86;1751198;82;21027;-85
2022/07/15 02:10:07;;;;;;;3.42;1.52;;;;;;;17.38;63.50;98890.83;1750998;82;20982;-86
2022/07/15 02:12:34;;;;;;;6.35;1.90;;;;;;;17.43;63.50;98886.17;1751108;82;21062;-86
2022/07/15 02:15:01;;;;;;;7.00;1.98;;;;;;;17.45;63.58;98883.47;1748260;82;21069;-86
2022/07/15 02:17:29;;;;;;;3.17;1.87;;;;;;;17.48;63.85;98887.22;1746431;82;21137;-86
2022/07/15 02:19:56;;;;;;;4.55;1.50;;;;;;;17.47;64.42;98886.38;1748523;82;21518;-85
2022/07/15 02:22:24;;;;;;;5.47;1.72;;;;;;;17.50;64.30;98883.56;1750681;82;21030;-86
2022/07/15 02:24:51;;;;;;;2.87;1.77;;;;;;;17.56;62.86;98890.25;1751049;81;21094;-87
2022/07/15 02:27:21;;;;;;;3.95;2.00;;;;;;;17.45;62.85;98880.84;1763119;80;21027;-90
2022/07/15 02:29:47;;;;;;;5.25;1.95;;;;;;;17.48;63.46;98898.57;1733884;81;20994;-85
2022/07/15 02:32:16;;;;;;;2.52;1.47;;;;;;;17.51;63.77;98887.06;1733703;82;21040;-86
2022/07/15 02:34:42;;;;;;;9.03;1.92;;;;;;;17.54;62.78;98886.03;1751196;82;21561;-85
2022/07/15 02:37:09;;;;;;;5.25;1.70;;;;;;;17.55;62.48;98895.59;1743529;81;21007;-86
2022/07/15 02:39:38;;;;;;;8.45;1.98;;;;;;;17.56;62.24;98885.00;1739347;82;21059;-86
2022/07/15 02:42:06;;;;;;;3.75;1.40;;;;;;;17.57;62.87;98893.75;1665602;85;21069;-85
2022/07/15 02:44:36;;;;;;;3.90;1.90;;;;;;;17.62;62.63;98891.69;1679309;84;21074;-85
2022/07/15 02:47:03;;;;;;;4.87;2.20;;;;;;;17.64;61.81;98891.97;1700127;83;21023;-85
2022/07/15 02:49:31;;;;;;;5.30;1.90;;;;;;;17.68;61.60;98890.02;1718222;83;21601;-85
2022/07/15 02:51:58;;;;;;;6.90;2.00;;;;;;;17.69;61.59;98889.94;1700926;84;21105;-86
2022/07/15 02:54:26;;;;;;;5.60;2.10;;;;;;;17.69;61.75;98879.42;1644233;85;21053;-85
2022/07/15 02:56:53;;;;;;;10.30;2.05;;;;;;;17.70;62.16;98888.99;1717606;84;21075;-84
2022/07/15 02:59:20;;;;;;;7.53;2.08;;;;;;;17.71;61.62;98891.17;1731269;82;21067;-86
2022/07/15 03:01:49;;;;;;;4.85;1.92;;;;;;;17.72;62.02;98886.75;1748092;82;21126;-85
2022/07/15 03:04:16;;;;;;;4.55;2.12;;;;;;;17.72;62.48;98888.07;1719509;82;21036;-84
2022/07/15 03:06:43;;;;;;;5.58;2.20;;;;;;;17.73;61.87;98887.15;1685159;84;21087;-86
2022/07/15 03:09:12;;;;;;;6.78;2.05;;;;;;;17.69;62.43;98884.69;1686195;84;21047;-86
2022/07/15 03:11:39;;;;;;;4.42;1.70;;;;;;;17.70;62.35;98888.99;1710086;84;21555;-86
2022/07/15 03:14:06;;;;;;;7.58;1.75;;;;;;;17.68;61.90;98886.92;1711139;84;21055;-85
2022/07/15 03:16:33;;;;;;;3.62;1.90;;;;;;;17.68;62.11;98886.08;1711243;84;21024;-85
2022/07/15 03:19:02;;;;;;;7.10;2.05;;;;;;;17.69;62.15;98891.73;1686274;84;21035;-86
2022/07/15 03:21:29;;;;;;;8.60;2.00;;;;;;;17.71;62.20;98887.23;1711430;84;21117;-84
2022/07/15 03:23:57;;;;;;;3.42;1.72;;;;;;;17.72;62.68;98887.59;1711848;84;21047;-86
2022/07/15 03:26:24;;;;;;;7.22;2.17;;;;;;;17.75;62.86;98879.55;1709748;84;21115;-86
2022/07/15 03:28:51;;;;;;;4.30;2.00;;;;;;;17.79;63.18;98890.73;1690911;85;21058;-86
2022/07/15 03:31:18;;;;;;;4.28;2.30;;;;;;;17.85;62.80;98883.84;1690971;85;21106;-87
2022/07/15 03:33:45;;;;;;;4.75;1.87;;;;;;;17.86;63.10;98877.62;1691057;85;21475;-86
2022/07/15 03:36:13;;;;;;;5.65;2.00;;;;;;;17.87;62.87;98879.33;1678955;85;21104;-86
2022/07/15 03:38:40;;;;;;;4.80;2.35;;;;;;;17.88;63.16;98884.48;1673392;84;21001;-86
2022/07/15 03:41:08;;;;;;;6.33;2.50;;;;;;;17.87;62.93;98884.12;1708287;84;20983;-86
2022/07/15 03:43:42;;;;;;;5.20;2.10;;;;;;;17.90;62.70;98884.39;1708807;84;21176;-85
2022/07/15 03:46:09;;;;;;;4.28;2.15;;;;;;;17.91;62.55;98883.47;1708661;84;21115;-87
2022/07/15 03:48:37;;;;;;;6.97;2.10;;;;;;;17.89;62.30;98884.88;1687225;84;21020;-86
2022/07/15 03:51:05;;;;;;;4.87;2.70;;;;;;;17.91;63.40;98886.11;1708960;84;21052;-85
2022/07/15 03:53:33;;;;;;;6.22;2.42;;;;;;;17.93;62.42;98887.34;1707641;84;20983;-86
2022/07/15 03:56:00;;;;;;;11.95;2.27;;;;;;;17.95;61.88;98888.93;1703700;84;21547;-86
2022/07/15 03:58:27;;;;;;;5.90;2.00;;;;;;;17.96;62.12;98884.03;1710636;84;21029;-85
2022/07/15 04:00:54;;;;;;;4.17;1.72;;;;;;;17.99;63.06;98889.13;1687123;84;21150;-86
2022/07/15 04:03:21;;;;;;;7.62;2.58;;;;;;;18.00;62.25;98880.76;1710033;83;21129;-85
2022/07/15 04:05:48;;;;;;;5.20;2.15;;;;;;;18.04;62.04;98880.48;1713165;84;21092;-86
2022/07/15 04:08:17;;;;;;;4.72;1.85;;;;;;;18.09;61.50;98870.55;1682570;85;21068;-85
2022/07/15 04:10:46;;;;;;;3.33;2.10;;;;;;;18.13;62.01;98878.27;1677282;85;21139;-85
2022/07/15 04:13:18;;;;;;;8.85;1.85;;;;;;;18.18;61.69;98878.82;1712236;84;21048;-86
2022/07/15 04:15:42;;;;;;;8.38;2.00;;;;;;;18.23;61.59;98873.66;1682650;84;21155;-86
2022/07/15 04:18:10;;;;;;;13.43;2.30;;;;;;;18.27;61.60;98869.91;1689445;85;21222;-86
2022/07/15 04:20:37;;;;;;;6.05;1.77;;;;;;;18.32;61.46;98869.62;1689268;85;21093;-85
2022/07/15 04:23:05;;;;;;;7.10;2.72;;;;;;;18.38;61.10;98864.45;1689435;85;21052;-86
2022/07/15 04:25:32;;;;;;;5.30;1.77;;;;;;;18.43;61.54;98863.25;1689362;85;21038;-85
2022/07/15 04:27:59;;;;;;;9.35;2.10;;;;;;;18.51;61.20;98867.20;1718579;83;20990;-85
2022/07/15 04:30:28;;;;;;;5.72;2.22;;;;;;;18.56;60.80;98868.62;1660560;86;21150;-86
2022/07/15 04:32:55;;;;;;;4.90;2.00;;;;;;;18.64;60.63;98862.86;1689322;85;21174;-85
2022/07/15 04:35:24;;;;;;;8.50;2.35;;;;;;;18.69;60.76;98859.48;1713399;84;21078;-85
2022/07/15 04:37:53;;;;;;;4.92;1.90;;;;;;;18.74;60.78;98861.38;1691770;84;21087;-86
2022/07/15 04:40:20;;;;;;;5.53;2.27;;;;;;;18.78;60.38;98856.73;1699153;84;21028;-86
2022/07/15 04:42:47;;;;;;;4.05;1.90;;;;;;;18.84;60.69;98857.70;1711765;84;21050;-86
2022/07/15 04:45:14;;;;;;;6.53;2.00;;;;;;;18.85;60.43;98865.50;1749438;81;21536;-86
2022/07/15 04:47:42;;;;;;;6.65;2.45;;;;;;;18.95;60.00;98871.05;1740643;82;21553;-86
2022/07/15 04:55:53;;;;;;;2.80;1.70;;;;;;;19.12;59.30;98887.56;1740160;81;21071;-86
2022/07/15 04:58:22;;;;;;;6.40;1.85;;;;;;;19.21;59.21;98882.55;1730446;83;20971;-85
2022/07/15 05:00:51;;;;;;;5.50;1.87;;;;;;;19.25;59.31;98885.37;1746183;82;20983;-85
2022/07/15 05:03:20;;;;;;;9.70;2.20;;;;;;;19.34;59.04;98872.53;1747431;82;21120;-87
2022/07/15 05:05:48;;;;;;;4.20;2.00;;;;;;;19.44;58.68;98876.30;1748713;82;21079;-86
2022/07/15 05:08:17;;;;;;;6.67;2.08;;;;;;;19.53;58.44;98877.47;1723901;82;21518;-85
2022/07/15 05:10:52;;;;;;;9.50;2.00;;;;;;;19.63;58.42;98879.39;1763672;81;21054;-85
2022/07/15 05:13:19;;;;;;;8.38;1.80;;;;;;;19.74;57.86;98883.17;1751346;82;21033;-86
2022/07/15 05:15:47;;;;;;;4.80;1.87;;;;;;;19.86;57.42;98883.19;1708153;83;20985;-85
2022/07/15 05:18:16;;;;;;;6.42;1.90;;;;;;;19.98;57.39;98882.00;1726837;82;21082;-86
2022/07/15 05:20:45;;;;;;;4.37;1.82;;;;;;;20.10;57.19;98882.98;1751023;82;21089;-86
2022/07/15 05:23:17;;;;;;;3.77;2.00;;;;;;;20.20;56.79;98889.31;1751113;82;21023;-86
2022/07/15 05:25:46;;;;;;;6.35;2.00;;;;;;;20.28;56.66;98879.56;1751411;82;21063;-86
2022/07/15 05:28:17;;;;;;;5.72;1.80;;;;;;;20.42;56.35;98880.28;1748590;82;21651;-85
2022/07/15 05:31:01;;;;;;;10.03;2.75;;;;;;;20.53;56.13;98876.92;1718936;83;21555;-84
2022/07/15 05:33:31;;;;;;;7.10;2.05;;;;;;;20.63;56.01;98885.05;1718669;83;21173;-86
2022/07/15 05:35:58;;;;;;;7.65;2.00;;;;;;;20.76;55.83;98885.88;1727325;81;21069;-86
2022/07/15 05:38:27;;;;;;;5.45;2.05;;;;;;;20.89;55.49;98892.94;1724512;82;21069;-86
2022/07/15 05:40:56;;;;;;;3.25;1.62;;;;;;;21.01;55.38;98884.16;1696797;83;21061;-84
2022/07/15 05:43:25;;;;;;;5.92;1.70;;;;;;;21.14;55.04;98891.55;1736460;82;21107;-84
2022/07/15 05:45:54;;;;;;;5.58;1.90;;;;;;;21.28;54.97;98895.02;1750602;82;21081;-86
2022/07/15 05:48:24;;;;;;;3.15;1.67;;;;;;;21.41;54.35;98890.05;1733554;83;21101;-86
2022/07/15 05:50:54;;;;;;;5.53;1.67;;;;;;;21.60;54.27;98899.30;1745713;81;21174;-85
2022/07/15 05:53:30;;;;;;;3.25;1.55;;;;;;;21.74;53.45;98890.34;1751122;80;21058;-85
2022/07/15 05:55:59;;;;;;;8.55;1.90;;;;;;;21.93;53.58;98892.47;1687016;83;21121;-85
2022/07/15 06:01:29;;;;;;;5.28;2.20;;;;;;;22.27;52.55;98885.97;1689016;82;20965;-86
2022/07/15 06:03:56;;;;;;;5.92;2.10;;;;;;;22.50;52.65;98881.06;1718244;81;21095;-86
2022/07/15 06:06:25;;;;;;;6.00;1.80;;;;;;;22.73;52.03;98887.19;1687908;82;21081;-85
2022/07/15 06:08:52;;;;;;;6.60;2.08;;;;;;;22.87;51.89;98876.83;1728722;81;21011;-84
2022/07/15 06:11:19;;;;;;;3.87;2.00;;;;;;;23.09;52.02;98876.47;1712997;82;21022;-85
2022/07/15 06:13:48;;;;;;;10.88;2.10;;;;;;;23.29;51.28;98881.49;1683875;84;21018;-86
2022/07/15 06:16:16;;;;;;;8.00;2.30;;;;;;;23.51;50.72;98869.47;1692303;84;20959;-86
2022/07/15 06:18:43;;;;;;;7.00;2.02;;;;;;;23.70;50.21;98867.98;1715900;83;21014;-85
2022/07/15 06:21:11;;;;;;;6.53;1.80;;;;;;;23.90;48.28;98872.48;1711609;82;20999;-84
2022/07/15 06:23:38;;;;;;;9.55;2.10;;;;;;;24.10;47.25;98875.28;1716716;82;21010;-85
2022/07/15 06:26:05;;;;;;;7.12;1.70;;;;;;;24.26;46.37;98871.67;1710196;82;21038;-85
2022/07/15 06:28:33;;;;;;;9.45;1.98;;;;;;;24.42;46.43;98877.34;1681729;84;21030;-85
2022/07/15 06:31:00;;;;;;;4.87;1.98;;;;;;;24.57;46.42;98865.92;1682145;84;21019;-86
2022/07/15 06:33:30;;;;;;;4.45;1.65;;;;;;;24.73;46.72;98870.75;1691771;83;21136;-86
2022/07/15 06:35:57;;;;;;;6.37;1.75;;;;;;;24.93;46.61;98870.33;1712769;83;21022;-86
2022/07/15 06:38:27;;;;;;;4.67;1.80;;;;;;;25.09;45.03;98867.15;1695257;83;21002;-86
2022/07/15 06:40:57;;;;;;;7.70;1.90;;;;;;;25.25;44.92;98863.99;1696965;83;21087;-86
2022/07/15 06:43:27;;;;;;;10.50;1.85;;;;;;;25.36;43.68;98862.52;1691112;84;20967;-87
2022/07/15 06:45:59;;;;;;;5.55;2.00;;;;;;;25.50;44.63;98867.92;1662449;85;21026;-87
2022/07/15 06:48:27;;;;;;;7.15;1.98;;;;;;;25.69;43.03;98871.09;1649639;84;21021;-86
2022/07/15 06:50:54;;;;;;;5.55;1.90;;;;;;;25.82;42.90;98866.80;1688451;82;21079;-86
2022/07/15 06:53:21;;;;;;;4.67;1.90;;;;;;;25.97;42.17;98864.09;1699777;83;20998;-84
2022/07/15 06:55:48;;;;;;;6.03;2.12;;;;;;;26.09;42.82;98863.44;1701001;82;21031;-85
2022/07/15 06:58:15;;;;;;;5.12;2.10;;;;;;;26.24;42.18;98860.33;1703177;82;20983;-86
2022/07/15 07:00:42;;;;;;;6.90;2.02;;;;;;;26.37;41.15;98868.34;1715636;82;21014;-85
2022/07/15 07:03:09;;;;;;;5.90;1.92;;;;;;;26.43;40.74;98868.27;1695471;83;21105;-86
2022/07/15 07:05:36;;;;;;;7.28;1.98;;;;;;;26.44;41.66;98869.96;1696752;82;21048;-87
2022/07/15 07:08:04;;;;;;;11.18;2.42;;;;;;;26.45;41.44;98866.80;1707994;83;21002;-86
2022/07/15 07:10:32;;;;;;;3.95;1.77;;;;;;;26.43;41.50;98867.44;1689183;82;21115;-85
2022/07/15 07:12:59;;;;;;;4.35;1.87;;;;;;;26.33;41.65;98865.63;1709130;82;21006;-86
2022/07/15 07:15:26;;;;;;;7.05;2.05;;;;;;;26.24;41.08;98865.15;1694272;84;21090;-86
2022/07/15 07:17:54;;;;;;;4.15;1.65;;;;;;;26.16;41.12;98867.70;1669256;83;20976;-86
2022/07/15 07:20:21;;;;;;;3.80;2.00;;;;;;;26.09;41.80;98860.78;1680140;85;21076;-87
2022/07/15 07:22:48;;;;;;;10.65;2.52;;;;;;;26.13;41.72;98858.17;1659271;85;21160;-86
2022/07/15 07:25:17;;;;;;;3.17;1.62;;;;;;;26.11;41.72;98864.64;1718003;82;21237;-86
2022/07/15 07:27:44;;;;;;;4.12;1.62;;;;;;;26.11;41.45;98869.97;1721405;82;20998;-86
2022/07/15 07:30:11;;;;;;;5.40;1.70;;;;;;;26.13;40.96;98859.51;1697260;82;20992;-86
2022/07/15 07:32:38;;;;;;;11.03;2.40;;;;;;;26.15;41.10;98857.54;1718352;82;21024;-87
2022/07/15 07:35:06;;;;;;;5.08;1.62;;;;;;;26.15;41.33;98854.88;1726864;82;21037;-86
2022/07/15 07:37:38;;;;;;;6.28;2.10;;;;;;;26.26;40.86;98857.88;1715499;82;21004;-86
2022/07/15 07:40:07;;;;;;;4.83;1.62;;;;;;;26.44;39.25;98850.44;1671843;85;21101;-85
2022/07/15 07:42:34;;;;;;;2.50;1.60;;;;;;;26.62;39.29;98858.08;1691295;84;21006;-86
2022/07/15 07:45:03;;;;;;;4.95;2.05;;;;;;;26.79;38.84;98851.94;1666950;85;21009;-84
2022/07/15 07:47:30;;;;;;;4.80;1.82;;;;;;;26.98;38.24;98843.00;1690382;84;21060;-84
2022/07/15 07:49:57;;;;;;;4.25;1.90;;;;;;;27.16;37.94;98843.03;1693945;84;21054;-85
2022/07/15 07:52:26;;;;;;;4.40;2.00;;;;;;;27.31;37.35;98847.88;1703520;84;21000;-86
2022/07/15 07:54:53;;;;;;;3.98;1.87;;;;;;;27.45;36.07;98851.84;1711230;82;21019;-85
2022/07/15 07:57:22;;;;;;;4.55;2.15;;;;;;;27.58;36.40;98857.66;1722690;82;21303;-87
2022/07/15 07:59:56;;;;;;;6.50;1.90;;;;;;;27.72;36.20;98849.59;1721628;82;21076;-86
2022/07/15 08:02:23;;;;;;;3.47;1.50;;;;;;;27.85;36.35;98850.52;1708579;82;21094;-85
2022/07/15 08:04:51;;;;;;;5.45;1.70;;;;;;;28.00;35.70;98846.84;1679288;84;21077;-85
2022/07/15 08:07:22;;;;;;;4.47;2.00;;;;;;;28.11;35.52;98838.55;1706773;84;21152;-88
2022/07/15 08:09:52;;;;;;;;;;;;;;;28.19;34.99;98837.27;1685437;83;21048;-87
2022/07/15 08:12:20;;;;;;;6.78;1.85;;;;;;;28.29;34.75;98832.67;1723528;83;20167;-87
2022/07/15 08:14:49;;;;;;;13.10;1.67;;;;;;;28.42;35.20;98832.73;1730393;83;21014;-87
2022/07/15 08:17:16;;;;;;;4.97;1.85;;;;;;;28.52;34.66;98832.14;1725590;82;21014;-85
2022/07/15 08:19:43;;;;;;;6.58;1.87;;;;;;;28.63;34.38;98841.70;1719329;82;21064;-85
2022/07/15 08:22:10;;;;;;;4.55;1.70;;;;;;;28.73;34.64;98835.25;1723079;82;21158;-85
2022/07/15 08:24:36;;;;;;;7.08;1.95;;;;;;;28.78;33.93;98835.27;1716816;82;21027;-85
2022/07/15 08:27:03;;;;;;;6.75;1.75;;;;;;;28.87;34.52;98835.14;1721683;82;21054;-84
2022/07/15 08:29:30;;;;;;;10.03;2.20;;;;;;;28.96;33.75;98831.47;1724338;82;21010;-83
2022/07/15 08:31:57;;;;;;;4.30;2.12;;;;;;;29.06;33.79;98847.39;1718243;83;21012;-84
2022/07/15 08:34:24;;;;;;;4.47;1.72;;;;;;;29.18;33.13;98847.12;1722595;82;21041;-84
2022/07/15 08:36:50;;;;;;;3.92;1.50;;;;;;;29.26;34.11;98838.60;1720017;82;21097;-83
2022/07/15 08:39:17;;;;;;;6.30;1.72;;;;;;;29.37;33.75;98842.82;1719044;82;21158;-82
2022/07/15 08:41:45;;;;;;;5.00;1.77;;;;;;;29.47;33.96;98844.84;1715942;82;21491;-82
2022/07/15 08:44:11;;;;;;;2.33;1.37;;;;;;;29.53;33.37;98836.14;1723205;82;21581;-83
2022/07/15 08:46:41;;;;;;;4.55;1.60;;;;;;;29.63;33.22;98844.02;1720153;82;21050;-81
2022/07/15 08:49:15;;;;;;;4.03;1.70;;;;;;;29.76;33.16;98847.55;1717627;82;21018;-85
2022/07/15 08:51:46;;;;;;;4.33;1.70;;;;;;;29.88;32.99;98841.35;1722840;82;21026;-83
2022/07/15 08:54:16;;;;;;;4.28;1.52;;;;;;;30.01;32.51;98839.00;1718019;82;21470;-83
2022/07/15 08:56:45;;;;;;;6.20;1.70;;;;;;;30.10;32.57;98844.70;1721139;82;21018;-83
2022/07/15 08:59:11;;;;;;;5.12;1.77;;;;;;;30.18;32.20;98844.33;1719212;82;21010;-84
2022/07/15 09:01:46;;;;;;;5.10;1.62;;;;;;;30.20;32.53;98839.16;1715154;82;21565;-84
2022/07/15 09:04:14;;;;;;;4.45;1.37;;;;;;;30.41;32.06;98845.83;1718384;82;21103;-84
2022/07/15 09:06:47;;;;;;;5.45;1.70;;;;;;;30.47;30.98;98843.28;1749027;81;21031;-83
2022/07/15 09:09:31;;;;;;;4.60;1.70;;;;;;;30.58;31.91;98838.07;1722047;82;21030;-84
2022/07/15 09:12:10;;;;;;;3.30;1.67;;;;;;;30.68;31.83;98837.84;1745636;81;21065;-84
2022/07/15 09:14:42;;;;;;;7.62;1.87;;;;;;;30.86;31.29;98839.80;1751454;81;21617;-85
2022/07/15 09:17:17;;;;;;;3.42;1.57;;;;;;;31.05;31.36;98843.91;1755477;81;20979;-85
2022/07/15 09:20:07;;;;;;;4.28;1.85;;;;;;;31.26;30.93;98842.46;1740704;81;21513;-85
2022/07/15 09:22:51;;;;;;;3.58;1.47;;;;;;;31.46;31.22;98840.17;1722949;82;21003;-85
2022/07/15 09:25:20;;;;;;;4.12;1.80;;;;;;;31.72;30.06;98845.17;1740188;81;21062;-85
2022/07/15 09:27:47;;;;;;;3.17;1.40;;;;;;;31.86;30.05;98855.13;1742361;81;21095;-84
2022/07/15 09:36:15;;;;;;;3.22;1.52;;;;;;;32.40;28.12;98859.51;1687325;85;21546;-85
2022/07/15 09:38:47;;;;;;;3.22;1.60;;;;;;;32.53;25.93;98879.06;1701264;84;21034;-85
2022/07/15 09:41:33;;;;;;;3.47;1.55;;;;;;;32.67;27.70;98857.23;1688482;84;21566;-84
2022/07/15 09:44:09;;;;;;;7.67;1.60;;;;;;;32.65;26.61;98856.07;1718144;83;20994;-84
2022/07/15 09:47:01;;;;;;;5.45;1.40;;;;;;;32.53;26.22;98854.84;1700901;84;21072;-84
2022/07/15 09:49:32;;;;;;;2.90;1.60;;;;;;;32.42;26.77;98852.60;1685429;85;21053;-84
2022/07/15 09:52:04;;;;;;;2.90;1.47;;;;;;;32.54;26.70;98851.63;1728985;82;21131;-84
2022/07/15 09:54:44;;;;;;;2.80;1.35;;;;;;;32.50;26.77;98860.06;1712581;82;21055;-85
2022/07/15 09:57:15;;;;;;;3.50;1.60;;;;;;;32.45;26.78;98867.88;1689895;82;21034;-85
2022/07/15 09:59:48;;;;;;;5.75;1.65;;;;;;;32.64;26.17;98859.77;1698218;82;21236;-85
2022/07/15 10:02:15;;;;;;;4.03;1.70;;;;;;;32.68;26.39;98868.31;1716060;82;21040;-87
2022/07/15 10:04:42;;;;;;;4.65;1.55;;;;;;;32.53;26.14;98872.33;1718103;83;21111;-84
2022/07/15 10:07:12;;;;;;;3.08;1.57;;;;;;;32.62;26.50;98861.81;1716597;82;21137;-88
2022/07/15 10:09:41;;;;;;;3.62;1.50;;;;;;;32.57;26.71;98862.04;1705160;82;21060;-89
2022/07/15 10:12:18;;;;;;;3.98;1.55;;;;;;;32.64;26.04;98865.67;1689512;84;21063;-88
2022/07/15 10:15:13;;;;;;;3.20;1.67;;;;;;;32.65;26.56;98866.83;1711445;82;21063;-88
2022/07/15 10:18:14;;;;;;;3.10;1.40;;;;;;;32.54;26.07;98861.88;1688648;83;20983;-87
2022/07/15 10:21:11;;;;;;;5.45;1.60;;;;;;;32.39;25.73;98871.30;1705004;82;21355;-87
2022/07/15 10:23:46;;;;;;;2.45;1.30;;;;;;;32.28;25.99;98859.13;1676680;85;20988;-87
2022/07/15 10:26:42;;;;;;;2.75;1.47;;;;;;;32.24;26.06;98859.17;1729195;82;21038;-89
2022/07/15 10:29:11;;;;;;;2.00;1.32;;;;;;;32.21;26.53;98863.59;1679677;82;21010;-85
2022/07/15 10:31:40;;;;;;;2.27;1.45;;;;;;;32.17;25.79;98852.02;1698907;84;21476;-87
2022/07/15 10:34:17;;;;;;;3.95;1.50;;;;;;;32.22;26.35;98854.48;1704089;84;21072;-85
2022/07/15 10:36:57;;;;;;;4.28;1.40;;;;;;;32.21;26.35;98852.83;1691775;82;21022;-88
2022/07/15 10:39:30;;;;;;;5.10;1.52;;;;;;;32.35;26.04;98846.28;1715255;82;21078;-85
2022/07/15 10:42:03;;;;;;;2.37;1.62;;;;;;;32.42;25.92;98840.50;1710258;83;21066;-84
2022/07/15 10:44:36;;;;;;;;;;;;;;;32.44;26.20;98835.25;1691365;84;21029;-86
2022/07/15 10:47:16;;;;;;;3.55;1.70;;;;;;;32.41;25.92;98831.60;1688046;85;20113;-87
2022/07/15 10:49:46;;;;;;;2.80;1.40;;;;;;;32.46;25.72;98837.24;1669243;84;21051;-86
2022/07/15 10:52:23;;;;;;;6.47;1.60;;;;;;;32.38;25.50;98824.41;1690677;84;21033;-85
2022/07/15 10:55:04;;;;;;;2.02;1.30;;;;;;;32.53;26.02;98820.34;1708814;84;20988;-88
2022/07/15 10:57:49;;;;;;;2.58;1.45;;;;;;;32.63;25.45;98818.23;1725644;82;21580;-85
2022/07/15 11:00:25;;;;;;;3.90;1.50;;;;;;;32.59;25.84;98812.42;1687954;82;21083;-85
2022/07/15 11:03:07;;;;;;;4.35;1.80;;;;;;;32.69;24.94;98808.09;1718379;82;21058;-84
2022/07/15 11:05:37;;;;;;;3.20;1.70;;;;;;;32.89;24.54;98808.33;1707550;82;20999;-85
2022/07/15 11:08:26;;;;;;;6.47;1.87;;;;;;;33.03;24.12;98814.70;1714021;82;21059;-85
2022/07/15 11:10:53;;;;;;;2.00;1.60;;;;;;;33.06;24.85;98810.27;1725220;82;21037;-86
2022/07/15 11:13:32;;;;;;;2.98;1.30;;;;;;;33.06;24.50;98812.44;1726888;82;21030;-86
2022/07/15 11:16:00;;;;;;;3.98;1.52;;;;;;;32.94;23.38;98809.92;1719046;82;21025;-85
2022/07/15 11:18:27;;;;;;;3.65;1.55;;;;;;;32.81;23.82;98802.55;1664416;84;21124;-84
2022/07/15 11:20:54;;;;;;;3.67;1.27;;;;;;;32.80;23.68;98804.07;1718306;82;20978;-85
2022/07/15 11:23:26;;;;;;;3.02;1.80;;;;;;;32.84;24.30;98807.53;1716025;82;21066;-85
2022/07/15 11:25:53;;;;;;;5.80;1.55;;;;;;;32.94;24.41;98808.58;1710769;82;20978;-86
2022/07/15 11:28:21;;;;;;;5.87;1.70;;;;;;;32.94;24.15;98805.06;1719317;82;21104;-84
2022/07/15 11:30:53;;;;;;;4.55;1.62;;;;;;;32.87;24.66;98808.52;1721099;82;21073;-86
2022/07/15 11:33:25;;;;;;;2.55;1.35;;;;;;;32.82;24.45;98810.10;1716239;82;21086;-80
2022/07/15 11:35:56;;;;;;;1.98;1.30;;;;;;;32.89;24.84;98803.77;1702904;83;21061;-83
2022/07/15 11:38:27;;;;;;;4.72;1.55;;;;;;;32.87;24.64;98795.05;1723894;81;21027;-81
2022/07/15 11:46:31;;;;;;;2.83;1.30;;;;;;;33.22;24.28;98785.81;1722592;82;21534;-81
2022/07/15 11:48:58;;;;;;;3.22;1.57;;;;;;;33.45;24.25;98782.94;1716113;82;20999;-82
2022/07/15 11:51:29;;;;;;;2.40;1.30;;;;;;;33.63;24.69;98773.06;1719208;82;21074;-83
2022/07/15 11:53:58;;;;;;;2.22;1.40;;;;;;;33.95;23.91;98772.67;1722694;82;20991;-82
2022/07/15 11:56:25;;;;;;;5.10;1.90;;;;;;;34.06;24.04;98769.41;1721724;82;21071;-81
2022/07/15 11:58:56;;;;;;;2.42;1.35;;;;;;;34.20;23.49;98769.86;1720994;82;21490;-81
2022/07/15 12:01:29;;;;;;;3.80;1.40;;;;;;;34.24;23.19;98767.57;1711550;82;21141;-82
2022/07/15 12:03:58;;;;;;;3.98;1.57;;;;;;;34.37;23.43;98772.22;1710425;82;20998;-82
2022/07/15 12:06:32;;;;;;;4.12;1.42;;;;;;;34.42;22.43;98782.73;1720972;82;21044;-81